sensor_id;sensor_type;location;lat;lon;timestamp;pressure;altitude;pressure_sealevel;temperature;humidity
55077;BME280;40971;44.702;11.030;2023-02-15T00:00:00;102867.53;;;1.09;77.02
55077;BME280;40971;44.702;11.030;2023-02-15T00:10:02;102860.13;;;0.99;74.38
55077;BME280;40971;44.702;11.030;2023-02-15T00:20:02;102823.81;;;0.46;75.53
55077;BME280;40971;44.702;11.030;2023-02-15T00:30:03;102852.19;;;0.49;75.71
55077;BME280;40971;44.702;11.030;2023-02-15T00:40:04;102856.13;;;0.33;79.25
55077;BME280;40971;44.702;11.030;2023-02-15T00:50:05;102834.78;;;0.54;76.21
55077;BME280;40971;44.702;11.030;2023-02-15T01:00:06;102833.16;;;0.50;79.45
55077;BME280;40971;44.702;11.030;2023-02-15T01:10:10;102852.72;;;0.61;77.41
55077;BME280;40971;44.702;11.030;2023-02-15T01:20:11;102845.56;;;0.41;78.66
55077;BME280;40971;44.702;11.030;2023-02-15T01:30:12;102839.56;;;0.11;77.91
55077;BME280;40971;44.702;11.030;2023-02-15T01:40:15;102835.97;;;0.44;79.48
55077;BME280;40971;44.702;11.030;2023-02-15T01:50:21;102827.47;;;0.39;79.38
55077;BME280;40971;44.702;11.030;2023-02-15T02:00:23;102824.16;;;-0.23;82.41
55077;BME280;40971;44.702;11.030;2023-02-15T02:10:24;102829.59;;;-0.03;83.24
55077;BME280;40971;44.702;11.030;2023-02-15T02:32:03;102800.03;;;0.06;81.31
55077;BME280;40971;44.702;11.030;2023-02-15T02:41:43;102819.84;;;0.07;80.81
55077;BME280;40971;44.702;11.030;2023-02-15T02:51:44;102804.97;;;-0.14;77.30
55077;BME280;40971;44.702;11.030;2023-02-15T03:01:55;102800.19;;;-0.60;80.69
55077;BME280;40971;44.702;11.030;2023-02-15T03:11:58;102800.81;;;-0.50;84.42
55077;BME280;40971;44.702;11.030;2023-02-15T03:22:10;102800.59;;;-0.14;84.14
55077;BME280;40971;44.702;11.030;2023-02-15T03:32:14;102790.97;;;-0.38;80.87
55077;BME280;40971;44.702;11.030;2023-02-15T03:42:31;102805.44;;;-0.97;83.75
55077;BME280;40971;44.702;11.030;2023-02-15T03:52:33;102810.97;;;-1.10;85.92
55077;BME280;40971;44.702;11.030;2023-02-15T04:02:45;102806.41;;;-0.67;82.28
55077;BME280;40971;44.702;11.030;2023-02-15T04:12:49;102802.28;;;-1.06;82.84
55077;BME280;40971;44.702;11.030;2023-02-15T04:22:49;102789.31;;;-1.05;84.08
55077;BME280;40971;44.702;11.030;2023-02-15T04:33:08;102789.16;;;-0.99;84.02
55077;BME280;40971;44.702;11.030;2023-02-15T04:43:09;102783.38;;;-1.44;82.91
55077;BME280;40971;44.702;11.030;2023-02-15T04:53:10;102795.91;;;-0.93;83.01
55077;BME280;40971;44.702;11.030;2023-02-15T05:03:11;102784.50;;;-1.55;83.37
55077;BME280;40971;44.702;11.030;2023-02-15T05:13:11;102792.00;;;-1.45;83.26
55077;BME280;40971;44.702;11.030;2023-02-15T05:23:12;102798.19;;;-1.15;85.02
55077;BME280;40971;44.702;11.030;2023-02-15T05:33:12;102780.25;;;-1.21;83.30
55077;BME280;40971;44.702;11.030;2023-02-15T05:43:13;102799.50;;;-0.99;82.28
55077;BME280;40971;44.702;11.030;2023-02-15T05:53:13;102792.69;;;-1.03;82.04
55077;BME280;40971;44.702;11.030;2023-02-15T06:03:13;102789.69;;;-1.20;83.00
55077;BME280;40971;44.702;11.030;2023-02-15T06:13:14;102803.91;;;-1.39;84.37
55077;BME280;40971;44.702;11.030;2023-02-15T06:23:15;102817.63;;;-1.76;86.35
55077;BME280;40971;44.702;11.030;2023-02-15T06:33:16;102821.41;;;-1.15;85.84
55077;BME280;40971;44.702;11.030;2023-02-15T06:43:16;102824.38;;;-0.64;83.28
55077;BME280;40971;44.702;11.030;2023-02-15T06:53:17;102820.03;;;-0.30;85.30
55077;BME280;40971;44.702;11.030;2023-02-15T07:03:17;102827.91;;;-0.34;82.40
55077;BME280;40971;44.702;11.030;2023-02-15T07:13:18;102826.34;;;0.76;79.73
55077;BME280;40971;44.702;11.030;2023-02-15T07:23:19;102820.03;;;1.60;77.87
55077;BME280;40971;44.702;11.030;2023-02-15T07:33:19;102818.50;;;2.24;75.98
55077;BME280;40971;44.702;11.030;2023-02-15T07:43:28;102829.25;;;2.81;74.77
55077;BME280;40971;44.702;11.030;2023-02-15T07:53:30;102830.03;;;3.84;72.65
55077;BME280;40971;44.702;11.030;2023-02-15T08:03:30;102849.66;;;5.19;72.50
55077;BME280;40971;44.702;11.030;2023-02-15T08:13:31;102829.63;;;6.19;64.67
55077;BME280;40971;44.702;11.030;2023-02-15T08:23:31;102827.13;;;6.94;61.09
55077;BME280;40971;44.702;11.030;2023-02-15T08:33:32;102812.66;;;8.17;56.63
55077;BME280;40971;44.702;11.030;2023-02-15T08:43:32;102818.69;;;8.46;55.45
55077;BME280;40971;44.702;11.030;2023-02-15T08:53:33;102831.72;;;8.48;55.57
55077;BME280;40971;44.702;11.030;2023-02-15T09:03:33;102826.81;;;8.83;54.58
55077;BME280;40971;44.702;11.030;2023-02-15T09:13:34;102837.47;;;9.06;52.86
55077;BME280;40971;44.702;11.030;2023-02-15T09:23:35;102826.28;;;9.42;55.08
55077;BME280;40971;44.702;11.030;2023-02-15T09:33:37;102841.19;;;9.42;54.46
55077;BME280;40971;44.702;11.030;2023-02-15T11:06:51;102763.53;;;12.40;48.07
55077;BME280;40971;44.702;11.030;2023-02-15T11:16:56;102752.28;;;12.90;46.78
55077;BME280;40971;44.702;11.030;2023-02-15T11:37:29;102718.97;;;13.80;44.58
55077;BME280;40971;44.702;11.030;2023-02-15T11:47:32;102706.91;;;14.16;42.50
55077;BME280;40971;44.702;11.030;2023-02-15T11:57:37;102706.09;;;14.63;41.22
55077;BME280;40971;44.702;11.030;2023-02-15T12:07:45;102684.81;;;15.11;40.85
55077;BME280;40971;44.702;11.030;2023-02-15T12:17:50;102691.81;;;15.76;40.17
55077;BME280;40971;44.702;11.030;2023-02-15T12:27:52;102670.56;;;16.21;38.44
55077;BME280;40971;44.702;11.030;2023-02-15T12:38:09;102662.88;;;16.71;35.39
55077;BME280;40971;44.702;11.030;2023-02-15T12:48:20;102636.34;;;16.79;36.02
55077;BME280;40971;44.702;11.030;2023-02-15T12:58:23;102624.44;;;17.17;35.34
55077;BME280;40971;44.702;11.030;2023-02-15T13:08:28;102604.22;;;17.32;32.89
55077;BME280;40971;44.702;11.030;2023-02-15T13:18:34;102616.72;;;18.06;34.13
55077;BME280;40971;44.702;11.030;2023-02-15T13:28:42;102608.03;;;18.60;32.76
55077;BME280;40971;44.702;11.030;2023-02-15T13:38:49;102582.44;;;19.45;30.83
55077;BME280;40971;44.702;11.030;2023-02-15T14:09:36;102579.47;;;19.85;29.48
55077;BME280;40971;44.702;11.030;2023-02-15T14:19:57;102558.63;;;20.03;29.46
55077;BME280;40971;44.702;11.030;2023-02-15T14:30:12;102561.59;;;19.09;29.83
55077;BME280;40971;44.702;11.030;2023-02-15T14:51:01;102564.50;;;18.92;29.86
55077;BME280;40971;44.702;11.030;2023-02-15T15:01:07;102560.03;;;19.23;29.85
55077;BME280;40971;44.702;11.030;2023-02-15T15:31:56;102543.47;;;18.18;30.68
55077;BME280;40971;44.702;11.030;2023-02-15T15:42:30;102537.34;;;17.85;31.07
55077;BME280;40971;44.702;11.030;2023-02-15T15:52:31;102523.13;;;17.28;32.49
55077;BME280;40971;44.702;11.030;2023-02-15T16:02:50;102515.59;;;16.65;34.56
55077;BME280;40971;44.702;11.030;2023-02-15T16:12:52;102522.56;;;16.41;35.01
55077;BME280;40971;44.702;11.030;2023-02-15T16:23:10;102533.16;;;15.54;37.26
55077;BME280;40971;44.702;11.030;2023-02-15T16:33:17;102524.72;;;13.93;42.07
55077;BME280;40971;44.702;11.030;2023-02-15T16:43:26;102531.53;;;13.38;41.67
55077;BME280;40971;44.702;11.030;2023-02-15T16:53:29;102532.75;;;12.85;43.67
55077;BME280;40971;44.702;11.030;2023-02-15T17:03:30;102558.22;;;10.40;47.49
55077;BME280;40971;44.702;11.030;2023-02-15T17:13:30;102547.88;;;10.72;48.77
55077;BME280;40971;44.702;11.030;2023-02-15T17:23:51;102556.47;;;10.74;48.50
55077;BME280;40971;44.702;11.030;2023-02-15T17:33:51;102559.16;;;9.69;51.75
55077;BME280;40971;44.702;11.030;2023-02-15T17:43:55;102566.66;;;9.63;50.21
55077;BME280;40971;44.702;11.030;2023-02-15T17:53:55;102557.59;;;9.07;52.63
55077;BME280;40971;44.702;11.030;2023-02-15T18:04:14;102578.22;;;8.62;55.90
55077;BME280;40971;44.702;11.030;2023-02-15T18:14:33;102575.69;;;8.48;54.14
55077;BME280;40971;44.702;11.030;2023-02-15T18:24:34;102578.59;;;7.65;54.57
55077;BME280;40971;44.702;11.030;2023-02-15T18:34:37;102592.88;;;7.74;58.04
55077;BME280;40971;44.702;11.030;2023-02-15T18:44:39;102566.50;;;6.95;60.63
55077;BME280;40971;44.702;11.030;2023-02-15T18:54:40;102585.72;;;7.08;59.27
55077;BME280;40971;44.702;11.030;2023-02-15T19:04:42;102599.38;;;6.99;60.41
55077;BME280;40971;44.702;11.030;2023-02-15T19:14:42;102606.28;;;7.00;60.60
55077;BME280;40971;44.702;11.030;2023-02-15T19:24:44;102592.28;;;6.29;62.23
55077;BME280;40971;44.702;11.030;2023-02-15T19:34:46;102602.88;;;6.41;61.79
55077;BME280;40971;44.702;11.030;2023-02-15T19:44:46;102599.28;;;5.83;60.35
55077;BME280;40971;44.702;11.030;2023-02-15T19:54:47;102615.88;;;5.51;64.18
55077;BME280;40971;44.702;11.030;2023-02-15T20:04:48;102604.50;;;5.36;65.96
55077;BME280;40971;44.702;11.030;2023-02-15T20:14:49;102626.00;;;4.76;69.02
55077;BME280;40971;44.702;11.030;2023-02-15T20:24:51;102604.69;;;4.85;68.28
55077;BME280;40971;44.702;11.030;2023-02-15T20:34:54;102624.44;;;4.89;68.61
55077;BME280;40971;44.702;11.030;2023-02-15T20:44:55;102625.94;;;4.08;71.08
55077;BME280;40971;44.702;11.030;2023-02-15T20:54:55;102585.28;;;4.23;69.26
55077;BME280;40971;44.702;11.030;2023-02-15T21:04:56;102620.88;;;4.23;68.66
55077;BME280;40971;44.702;11.030;2023-02-15T21:14:56;102628.09;;;3.82;70.12
55077;BME280;40971;44.702;11.030;2023-02-15T21:24:57;102635.44;;;3.36;72.23
55077;BME280;40971;44.702;11.030;2023-02-15T21:34:57;102636.84;;;3.62;70.75
55077;BME280;40971;44.702;11.030;2023-02-15T21:44:58;102618.31;;;3.51;72.03
55077;BME280;40971;44.702;11.030;2023-02-15T21:55:17;102642.16;;;3.22;72.35
55077;BME280;40971;44.702;11.030;2023-02-15T22:05:29;102648.75;;;3.10;74.53
55077;BME280;40971;44.702;11.030;2023-02-15T22:15:34;102644.38;;;3.68;73.37
55077;BME280;40971;44.702;11.030;2023-02-15T22:25:35;102647.78;;;3.87;72.90
55077;BME280;40971;44.702;11.030;2023-02-15T22:35:36;102643.25;;;3.91;72.12
55077;BME280;40971;44.702;11.030;2023-02-15T22:45:36;102657.72;;;3.42;73.30
55077;BME280;40971;44.702;11.030;2023-02-15T22:55:37;102644.59;;;2.67;75.76
55077;BME280;40971;44.702;11.030;2023-02-15T23:05:38;102657.25;;;2.13;71.07
55077;BME280;40971;44.702;11.030;2023-02-15T23:15:39;102663.50;;;2.07;74.42
55077;BME280;40971;44.702;11.030;2023-02-15T23:25:40;102672.31;;;1.82;76.14
55077;BME280;40971;44.702;11.030;2023-02-15T23:35:41;102667.19;;;1.35;76.46
55077;BME280;40971;44.702;11.030;2023-02-15T23:45:42;102672.81;;;1.91;79.05
55077;BME280;40971;44.702;11.030;2023-02-15T23:55:43;102673.91;;;1.86;78.52
